• Join FlightAware (Why Join?)
  • Login
  • US Flag 
04:59AM EST


 

Airport Tracker/Info


-or-


 

Live Flight TrackerFlight Track Log ✈ SWA1619 ✈ 23-Apr-2013 ✈ KHOU - KBNA

Flight Track Log - Related Links

Times and Time Zones

All times are in EDT time to prevent confusion due to time zone crossing. See the SWA1619 flight status page for this flight to view local times or setup timezone preferences in your user account.

Time Position Orientation Groundspeed Altitude Reporting Facility
EDT Latitude Longitude Course Direction KTS MPH feet Rate Location/Type
08:09AM 29.6353 -95.2650 27° Northeast 139 160 900  Level Houston Center
08:10AM 29.6611 -95.2500 27° Northeast 201 231 2,500 2,340 Climbing Houston Center
08:11AM 29.7186 -95.2575 354° North 241 277 4,800 2,820 Climbing Houston Center
08:12AM 29.7992 -95.2644 356° North 299 344 8,000 2,820 Climbing Houston Center
08:13AM 29.8844 -95.2714 356° North 302 348 11,100 3,420 Climbing Houston Center
08:14AM 29.9978 -95.2281 18° North 367 422 15,600 3,780 Climbing Houston Center
08:15AM 30.0894 -95.1728 28° Northeast 370 426 18,900 3,120 Climbing Houston Center
08:16AM 30.1864 -95.1144 27° Northeast 389 448 22,000 2,760 Climbing Houston Center
08:17AM 30.2892 -95.0531 27° Northeast 411 473 24,700 2,340 Climbing Houston Center
08:18AM 30.3942 -94.9883 28° Northeast 426 490 26,900 2,280 Climbing Houston Center
08:19AM 30.5203 -94.9119 28° Northeast 444 511 29,400 2,160 Climbing Houston Center
08:20AM 30.6289 -94.8331 32° Northeast 458 527 31,400 1,920 Climbing Houston Center
08:21AM 30.7378 -94.7492 34° Northeast 468 539 33,400 1,920 Climbing Houston Center
08:22AM 30.8447 -94.6667 34° Northeast 464 534 35,400 1,740 Climbing Houston Center
08:23AM 30.9275 -94.6019 34° Northeast 455 524 36,600 1,440 Climbing Fort Worth Center
08:24AM 31.0361 -94.5164 34° Northeast 460 529 38,000 1,200 Climbing Fort Worth Center
08:25AM 31.1572 -94.4275 32° Northeast 465 535 39,100 960 Climbing Fort Worth Center
08:26AM 31.2594 -94.3442 35° Northeast 475 547 40,000 900 Climbing Fort Worth Center
08:27AM 31.3681 -94.2578 34° Northeast 480 552 41,000 480 Climbing Fort Worth Center
08:28AM 31.4786 -94.1736 33° Northeast 475 547 41,000  Level Fort Worth Center
08:29AM 31.5850 -94.0919 33° Northeast 475 547 41,000  Level Fort Worth Center
08:30AM 31.7058 -93.9997 33° Northeast 470 541 41,000  Level Fort Worth Center
08:31AM 31.8100 -93.9153 35° Northeast 465 535 41,000  Level Fort Worth Center
08:32AM 31.8958 -93.8483 34° Northeast 465 535 41,000  Level Fort Worth Center
08:33AM 32.0119 -93.7506 36° Northeast 465 535 41,000  Level Fort Worth Center
08:34AM 32.1303 -93.6600 33° Northeast 460 529 41,000  Level Fort Worth Center
08:35AM 32.2258 -93.5775 36° Northeast 465 535 41,000  Level Fort Worth Center
08:36AM 32.3297 -93.4919 35° Northeast 459 528 41,000  Level Fort Worth Center
08:37AM 32.4356 -93.4064 34° Northeast 459 528 41,000  Level Fort Worth Center
08:38AM 32.5436 -93.3225 33° Northeast 459 528 41,000  Level Fort Worth Center
08:39AM 32.6533 -93.2339 34° Northeast 459 528 41,000  Level Fort Worth Center
08:40AM 32.7611 -93.1447 35° Northeast 466 536 41,000  Level Fort Worth Center
08:41AM 32.8686 -93.0581 34° Northeast 466 536 41,000  Level Fort Worth Center
08:43AM 33.0975 -92.8742 34° Northeast 490 564 41,000  Level Memphis Center
08:44AM 33.2058 -92.7856 34° Northeast 478 550 41,000  Level Memphis Center
08:45AM 33.3039 -92.6739 44° Northeast 478 550 41,000  Level Memphis Center
08:46AM 33.3917 -92.5467 50° Northeast 483 556 41,000  Level Memphis Center
08:47AM 33.4753 -92.4169 52° Northeast 483 556 41,000  Level Memphis Center
08:48AM 33.5589 -92.2892 52° Northeast 488 562 41,000  Level Memphis Center
08:49AM 33.6442 -92.1589 52° Northeast 488 562 41,000  Level Memphis Center
08:50AM 33.7253 -92.0306 53° Northeast 482 555 41,000  Level Memphis Center
08:51AM 33.8106 -91.9022 51° Northeast 482 555 41,000  Level Memphis Center
08:52AM 33.8956 -91.7736 51° Northeast 487 560 41,000  Level Memphis Center
08:53AM 33.9742 -91.6447 54° Northeast 482 555 41,000  Level Memphis Center
08:54AM 34.0589 -91.5106 53° Northeast 482 555 41,000  Level Memphis Center
08:55AM 34.1436 -91.3811 52° Northeast 488 562 41,000  Level Memphis Center
08:56AM 34.2300 -91.2489 52° Northeast 496 571 41,000 -360 Level Memphis Center
08:57AM 34.3081 -91.1167 54° Northeast 490 564 40,300 -780 Descending Memphis Center
08:58AM 34.3903 -90.9914 51° Northeast 483 556 39,500 -840 Descending Memphis Center
08:59AM 34.4658 -90.8686 53° Northeast 476 548 38,700 -900 Descending Memphis Center
09:00AM 34.5414 -90.7453 53° Northeast 455 524 37,800 -720 Descending Memphis Center
09:01AM 34.6106 -90.6347 53° Northeast 455 524 37,300 -420 Descending Memphis Center
09:02AM 34.6881 -90.5111 53° Northeast 462 532 37,000 -180 Descending Memphis Center
09:03AM 34.7675 -90.3797 54° Northeast 457 526 37,000  Level Memphis Center
09:04AM 34.8444 -90.2583 52° Northeast 457 526 37,000  Level Memphis Center
09:05AM 34.9236 -90.1367 52° Northeast 457 526 37,000  Level Memphis Center
09:06AM 35.0089 -90.0022 52° Northeast 457 526 37,000  Level Memphis Center
09:07AM 35.0667 -89.8497 65° Northeast 470 541 37,000  Level Memphis Center
09:08AM 35.1161 -89.6969 68° East 481 554 37,000  Level Memphis Center
09:09AM 35.1653 -89.5442 68° East 481 554 37,000  Level Memphis Center
09:10AM 35.2103 -89.4117 67° East 476 548 37,000  Level Memphis Center
09:11AM 35.2569 -89.2611 69° East 471 542 37,000 -180 Level Memphis Center
09:12AM 35.3078 -89.1103 68° East 476 548 36,700 -600 Descending Memphis Center
09:13AM 35.3542 -88.9669 68° East 470 541 35,800 -900 Descending Memphis Center
09:14AM 35.4003 -88.8236 68° East 454 522 35,000 -900 Descending Memphis Center
09:15AM 35.4444 -88.6800 69° East 449 517 34,100 -1,740 Descending Memphis Center
09:16AM 35.4925 -88.5311 68° East 454 522 31,600 -2,340 Descending Memphis Center
09:17AM 35.5403 -88.3872 68° East 454 522 29,500 -2,100 Descending Memphis Center
09:18AM 35.5858 -88.2433 69° East 454 522 27,500 -2,100 Descending Memphis Center
09:19AM 35.6333 -88.1017 68° East 433 498 25,300 -2,100 Descending Memphis Center
09:20AM 35.6725 -87.9675 70° East 414 476 23,300 -1,980 Descending Memphis Center
09:21AM 35.7139 -87.8386 68° East 408 470 21,400 -1,920 Descending Memphis Center
09:22AM 35.7508 -87.7147 70° East 391 450 19,500 -1,740 Descending Memphis Center
09:23AM 35.7839 -87.6061 69° East 381 438 18,000 -1,740 Descending Memphis Center
09:24AM 35.8211 -87.4922 68° East 365 420 16,100 -1,860 Descending Memphis Center
09:25AM 35.8622 -87.3833 65° Northeast 355 409 14,300 -1,800 Descending Memphis Center
09:26AM 35.9033 -87.2742 65° Northeast 345 397 12,500 -1,740 Descending Memphis Center
09:27AM 35.9403 -87.1703 66° East 333 383 10,900 -1,440 Descending Memphis Center
09:28AM 35.9775 -87.0739 64° Northeast 314 361 9,700 -1,260 Descending Memphis Center
09:29AM 36.0128 -86.9878 63° Northeast 285 328 8,400 -1,380 Descending Memphis Center
09:30AM 36.0500 -86.9042 61° Northeast 280 322 7,000 -1,200 Descending Memphis Center
09:31AM 36.0831 -86.8206 64° Northeast 274 315 6,100 -960 Descending Memphis Center
09:32AM 36.1486 -86.7817 26° Northeast 240 276 5,100 -900 Descending Memphis Center
09:33AM 36.2106 -86.7558 19° North 226 260 4,400 -900 Descending Memphis Center
09:34AM 36.2486 -86.7078 46° Northeast 209 241 3,300 -1,080 Descending Memphis Center
09:35AM 36.2222 -86.6600 124° Southeast 149 171 2,300 -840 Descending Memphis Center
09:36AM 36.1889 -86.6564 175° South 116 133 1,700 -660 Descending Memphis Center
09:37AM 36.1581 -86.6706 200° South 116 133 1,000 -480 Descending Memphis Center
09:38AM 36.1267 -86.6747 186° South 116 133 800 -240 Descending Memphis Center
09:40AM 36.1245 -86.6782 174° South  Level Estimated
09:47AM 36.1245 -86.6782 174° South  Level Estimated
09:48AM 36.1245 -86.6782 174° South  Level Estimated
09:49AM 36.1245 -86.6782 174° South  Level Estimated
09:50AM 36.1245 -86.6782 174° South  Level Estimated
09:51AM 36.1245 -86.6782 174° South  Level Estimated
09:52AM 36.1245 -86.6782 174° South  Level Estimated
09:53AM 36.1245 -86.6782 174° South  Level Estimated